Latest Weather Observations for Horn Island

IDQ60801

Issued at 8:02 am EST Sunday 31 July 2016 (issued every 30 minutes, with the page automatically refreshed every 10 minutes)

About weather observations | Map of weather stations | Latest weather observations for QLD | Other Formats
Station Details ID: 027058 Name: HORN ISLAND Lat: -10.58 Lon: 142.29 Height: 4.0 m
Data from the previous 72 hours. | See also: Recent months at Horn Island
Date/Time
EST
Temp
°C
App
Temp
°C
Dew
Point
°C
Rel
Hum
%
Delta-T
°C
Wind Press
QNH
hPa
Press
MSL
hPa
Rain since
9am
mm
Dir  Spd
km/h
Gust
km/h
Spd
kts
Gust
kts
31/08:00am 26.2 27.0 22.5 80 2.5 SE 22 37 12 20 1011.0 - 1.4
31/07:30am 25.6 26.8 22.5 83 2.1 SE 20 30 11 16 1010.7 - 1.4
31/07:00am 25.5 26.6 22.4 83 2.1 SSE 20 28 11 15 1010.4 - 1.4
31/06:30am 25.5 26.5 22.2 82 2.2 SE 20 30 11 16 1010.1 - 1.4
31/06:00am 25.5 26.5 22.2 82 2.2 SE 20 33 11 18 1009.8 1009.8 1.4
31/05:30am 25.6 25.9 22.3 82 2.2 SE 24 35 13 19 1009.6 - 1.4
31/05:00am 25.8 26.1 22.3 81 2.3 SSE 24 37 13 20 1009.5 - 1.4
31/04:30am 25.9 26.7 22.4 81 2.4 SE 22 35 12 19 1009.5 - 1.4
31/04:00am 25.9 26.3 22.4 81 2.4 SE 24 32 13 17 1009.5 - 1.4
31/03:30am 25.9 26.3 22.4 81 2.4 SE 24 32 13 17 1009.5 - 1.4
31/03:00am 25.9 26.3 22.4 81 2.4 SE 24 35 13 19 1009.9 1009.9 1.4
31/02:30am 25.9 25.5 22.4 81 2.4 SE 28 39 15 21 1010.0 - 1.4
31/02:00am 25.9 26.4 22.6 82 2.2 SE 24 35 13 19 1010.1 - 1.4
31/01:30am 25.6 26.4 22.5 83 2.1 SE 22 28 12 15 1010.3 - 1.4
31/01:00am 25.6 26.5 22.7 84 2.0 SE 22 33 12 18 1010.6 - 1.4
31/12:30am 25.1 26.7 23.3 90 1.2 SSE 20 33 11 18 1011.0 - 1.4
31/12:28am 25.0 26.6 23.2 90 1.2 SSE 20 33 11 18 1011.0 - 1.4
31/12:00am 24.7 23.8 23.1 91 1.1 ESE 33 52 18 28 1011.4 1011.4 0.0
 
Date/Time
EST
Temp
°C
App
Temp
°C
Dew
Point
°C
Rel
Hum
%
Delta-T
°C
Wind Press
QNH
hPa
Press
MSL
hPa
Rain since
9am
mm
Dir  Spd
km/h
Gust
km/h
Spd
kts
Gust
kts
30/11:59pm 24.8 23.4 23.0 90 1.2 ESE 35 52 19 28 1011.4 - 0.0
30/11:52pm 25.0 24.0 22.7 87 1.5 ESE 32 52 17 28 1011.3 - 0.0
30/11:30pm 26.7 26.4 21.9 75 3.2 SE 26 41 14 22 1011.3 - 0.0
30/11:00pm 26.6 25.5 21.8 75 3.2 SE 30 43 16 23 1011.4 - 0.0
30/10:30pm 26.6 26.3 21.8 75 3.2 SE 26 39 14 21 1011.5 - 0.0
30/10:00pm 26.7 25.9 21.7 74 3.3 SE 28 44 15 24 1011.4 - 0.0
30/09:30pm 26.7 26.8 21.9 75 3.2 SE 24 37 13 20 1011.4 - 0.0
30/09:00pm 26.8 25.5 21.3 72 3.7 SE 30 43 16 23 1011.3 1011.3 0.0
30/08:30pm 26.8 26.3 21.5 72 3.5 SE 26 37 14 20 1011.1 - 0.0
30/08:00pm 26.8 26.7 21.5 72 3.5 SE 24 37 13 20 1010.5 - 0.0
30/07:30pm 26.9 26.4 21.4 72 3.7 SE 26 39 14 21 1010.0 - 0.0
30/07:00pm 26.9 26.5 21.0 70 3.9 SE 24 37 13 20 1009.6 - 0.0
30/06:30pm 27.2 27.3 21.2 69 4.0 SE 22 39 12 21 1009.3 - 0.0
30/06:00pm 27.5 26.4 21.1 68 4.3 SE 28 43 15 23 1009.0 1009.0 0.0
30/05:30pm 28.1 26.2 20.9 65 4.8 SE 32 44 17 24 1008.6 - 0.0
30/05:00pm 28.5 28.1 21.0 64 5.0 SE 24 39 13 21 1008.5 - 0.0
30/04:30pm 28.7 27.3 21.2 64 5.0 SE 30 41 16 22 1008.4 - 0.0
30/04:00pm 29.5 28.0 20.9 60 5.7 SE 30 43 16 23 1008.6 - 0.0
30/03:30pm 29.4 27.7 20.5 58 5.9 SE 30 43 16 23 1008.4 - 0.0
30/03:00pm 29.4 27.1 20.5 58 5.9 ESE 33 46 18 25 1008.7 1008.7 0.0
30/02:30pm 29.7 27.1 21.4 61 5.6 ESE 37 46 20 25 1009.0 - 0.0
30/02:00pm 29.7 27.2 20.8 58 5.9 ESE 35 50 19 27 1009.4 - 0.0
30/01:41pm 29.8 28.0 21.2 60 5.7 SE 32 50 17 27 1009.6 - 0.0
30/01:30pm 29.9 27.8 21.6 61 5.6 ESE 35 48 19 26 1009.6 - 0.0
30/01:00pm 29.9 27.6 21.3 60 5.8 ESE 35 46 19 25 1010.2 - 0.0
30/12:30pm 29.6 27.3 21.3 61 5.6 ESE 35 48 19 26 1010.5 - 0.0
30/12:08pm 29.9 27.9 21.8 62 5.5 ESE 35 54 19 29 1010.7 - 0.0
30/12:00pm 29.4 26.8 21.4 62 5.4 SE 37 54 20 29 1010.9 1010.9 0.0
30/11:30am 29.4 27.2 21.4 62 5.4 ESE 35 48 19 26 1011.2 - 0.0
30/11:00am 29.2 27.5 21.7 64 5.0 ESE 33 50 18 27 1011.5 - 0.0
30/10:30am 28.6 26.6 21.9 67 4.5 ESE 35 46 19 25 1011.8 - 0.0
30/10:00am 28.2 27.3 22.2 70 4.0 SE 30 39 16 21 1011.9 - 0.0
30/09:30am 27.9 26.4 21.7 69 4.2 SE 32 46 17 25 1012.1 - 0.0
30/09:00am 27.4 26.9 22.1 73 3.6 SE 28 41 15 22 1011.8 1011.8 0.0
30/08:30am 26.9 26.4 22.1 75 3.2 SE 28 39 15 21 1011.6 - 0.0
30/08:00am 26.3 26.7 22.4 79 2.6 SE 24 35 13 19 1011.3 - 0.0
30/07:30am 26.0 25.9 22.3 80 2.5 SE 26 37 14 20 1010.9 - 0.0
30/07:00am 25.8 26.1 22.3 81 2.3 SE 24 35 13 19 1010.7 - 0.0
30/06:30am 25.6 25.8 22.1 81 2.3 SE 24 37 13 20 1010.4 - 0.0
30/06:00am 25.6 26.5 21.9 80 2.5 SE 20 28 11 15 1010.1 1010.1 0.0
30/05:30am 25.6 25.6 21.7 79 2.6 SE 24 41 13 22 1009.9 - 0.0
30/05:00am 25.6 26.0 21.7 79 2.6 SE 22 33 12 18 1009.9 - 0.0
30/04:30am 25.6 24.7 21.5 78 2.7 SE 28 41 15 22 1009.7 - 0.0
30/04:00am 25.6 25.2 21.7 79 2.6 SE 26 43 14 23 1009.7 - 0.0
30/03:30am 25.6 25.7 21.9 80 2.5 SE 24 35 13 19 1009.9 - 0.0
30/03:00am 25.6 25.2 21.7 79 2.6 SE 26 37 14 20 1010.0 1010.0 0.0
30/02:30am 25.5 25.5 21.6 79 2.6 SE 24 35 13 19 1010.2 - 0.0
30/02:00am 25.7 25.8 21.8 79 2.6 SE 24 35 13 19 1010.6 - 0.0
30/01:30am 25.7 25.9 22.0 80 2.5 SE 24 39 13 21 1010.9 - 0.0
30/01:00am 25.6 26.2 22.1 81 2.3 SE 22 33 12 18 1011.0 - 0.0
30/12:30am 25.4 25.7 22.3 83 2.1 SE 24 35 13 19 1011.3 - 0.0
30/12:00am 25.2 25.1 22.3 84 1.9 SSE 26 37 14 20 1011.5 1011.5 0.0
 
Date/Time
EST
Temp
°C
App
Temp
°C
Dew
Point
°C
Rel
Hum
%
Delta-T
°C
Wind Press
QNH
hPa
Press
MSL
hPa
Rain since
9am
mm
Dir  Spd
km/h
Gust
km/h
Spd
kts
Gust
kts
29/11:51pm 25.0 25.8 22.5 86 1.7 SE 22 32 12 17 1011.6 - 0.0
29/11:34pm 25.5 25.6 22.6 84 2.0 SE 26 39 14 21 1011.9 - 0.0
29/11:30pm 25.9 26.2 22.2 80 2.5 SE 24 35 13 19 1011.8 - 0.0
29/11:00pm 26.0 26.1 21.9 78 2.7 SE 24 35 13 19 1011.8 - 0.0
29/10:30pm 25.9 26.6 22.2 80 2.5 SE 22 33 12 18 1012.0 - 0.0
29/10:00pm 26.2 25.7 22.1 78 2.7 SE 28 39 15 21 1012.2 - 0.0
29/09:30pm 26.0 26.2 22.1 79 2.6 SE 24 35 13 19 1012.2 - 0.0
29/09:00pm 26.0 25.7 21.9 78 2.7 SE 26 41 14 22 1012.0 1012.0 0.0
29/08:30pm 25.9 26.4 22.0 79 2.6 SE 22 39 12 21 1011.6 - 0.0
29/08:00pm 26.0 25.5 22.1 79 2.6 SE 28 41 15 22 1011.3 - 0.0
29/07:30pm 26.3 26.2 22.2 78 2.8 SE 26 35 14 19 1010.7 - 0.0
29/07:00pm 26.4 25.3 21.8 76 3.1 SE 30 43 16 23 1010.3 - 0.0
29/06:30pm 26.8 25.8 22.0 75 3.2 SE 30 43 16 23 1009.9 - 0.0
29/06:00pm 26.8 25.2 21.8 74 3.3 SE 33 44 18 24 1009.6 1009.6 0.0
29/05:30pm 26.8 26.2 22.0 75 3.2 SE 28 43 15 23 1009.4 - 0.0
29/05:00pm 27.7 25.2 21.7 70 4.0 SE 37 50 20 27 1009.2 - 0.0
29/04:30pm 27.4 25.3 21.7 71 3.8 SE 35 54 19 29 1009.2 - 0.0
29/04:11pm 27.7 25.0 21.3 68 4.3 SE 37 57 20 31 1009.2 - 0.0
29/04:00pm 28.7 27.2 22.0 67 4.5 SE 33 48 18 26 1009.0 - 0.0
29/03:38pm 28.8 26.4 21.8 66 4.7 ESE 37 57 20 31 1009.1 - 0.0
29/03:30pm 29.3 27.0 22.0 64 4.9 ESE 37 52 20 28 1009.2 - 0.0
29/03:00pm 29.5 27.0 21.7 63 5.3 SE 37 50 20 27 1009.1 1009.1 0.0
29/02:30pm 29.5 26.7 21.7 63 5.2 SE 39 50 21 27 1009.4 - 0.0
29/02:00pm 29.5 26.7 21.7 63 5.2 SE 39 56 21 30 1009.6 - 0.0
29/01:33pm 29.0 26.4 21.5 64 5.0 ESE 37 56 20 30 1010.0 - 0.0
29/01:30pm 29.4 26.7 21.9 64 5.1 SE 39 52 21 28 1010.0 - 0.0
29/01:00pm 28.6 25.6 21.4 65 4.8 ESE 39 54 21 29 1010.4 - 0.0
29/12:44pm 29.7 27.5 22.2 64 5.1 ESE 37 56 20 30 1010.6 - 0.0
29/12:30pm 28.6 26.2 21.9 67 4.5 ESE 37 54 20 29 1010.9 - 0.0
29/12:16pm 29.2 26.6 22.2 66 4.7 ESE 39 57 21 31 1011.0 - 0.0
29/12:00pm 29.2 26.4 21.7 64 5.0 ESE 39 54 21 29 1011.1 1011.1 0.0
29/11:30am 28.5 26.1 21.8 67 4.5 ESE 37 52 20 28 1011.4 - 0.0
29/11:00am 29.4 28.4 22.6 67 4.6 SE 32 46 17 25 1011.9 - 0.0
29/10:45am 28.3 26.4 22.1 69 4.2 SE 35 54 19 29 1012.1 - 0.0
29/10:30am 28.2 24.6 21.0 65 4.8 SE 41 57 22 31 1012.2 - 0.0
29/10:00am 27.8 25.0 21.8 70 4.0 SE 39 54 21 29 1012.1 - 0.0
29/09:30am 27.5 26.1 22.0 72 3.7 ESE 32 52 17 28 1012.1 - 0.0
29/09:13am 26.9 26.0 22.1 75 3.2 SE 30 48 16 26 1012.2 - 0.0
29/09:00am 26.7 25.7 21.9 75 3.2 SE 30 44 16 24 1012.2 1012.2 0.4
29/08:30am 26.6 25.7 22.2 77 3.0 SE 30 43 16 23 1012.0 - 0.4
29/08:00am 25.9 26.2 22.2 80 2.5 SE 24 35 13 19 1011.8 - 0.4
29/07:30am 25.6 26.1 21.9 80 2.5 SE 22 33 12 18 1011.8 - 0.4
29/07:00am 25.5 25.7 22.0 81 2.3 SE 24 35 13 19 1011.6 - 0.4
29/06:30am 25.3 26.2 22.0 82 2.2 SE 20 35 11 19 1011.2 - 0.4
29/06:00am 25.3 25.1 22.0 82 2.2 SE 26 37 14 20 1011.0 1011.0 0.4
29/05:30am 25.1 25.2 21.8 82 2.2 SE 24 35 13 19 1011.0 - 0.4
29/05:00am 25.1 24.7 21.6 81 2.3 SE 26 39 14 21 1010.7 - 0.4
29/04:30am 25.2 25.3 21.9 82 2.2 SE 24 37 13 20 1010.8 - 0.4
29/04:00am 25.5 26.1 21.4 78 2.7 SSE 20 30 11 16 1010.6 - 0.4
29/03:30am 25.5 26.1 21.4 78 2.7 SE 20 30 11 16 1010.6 - 0.4
29/03:00am 25.6 25.5 21.5 78 2.7 SE 24 39 13 21 1010.7 1010.7 0.4
29/02:30am 25.8 24.9 21.5 77 2.9 SE 28 41 15 22 1011.0 - 0.4
29/02:28am 25.8 24.9 21.5 77 2.9 SE 28 46 15 25 1011.1 - 0.4
29/02:00am 25.9 25.1 21.6 77 2.9 SE 28 41 15 22 1011.4 - 0.4
29/01:30am 26.0 24.9 21.7 77 2.9 SE 30 43 16 23 1011.7 - 0.4
29/01:00am 26.0 26.1 21.9 78 2.7 SE 24 37 13 20 1012.1 - 0.4
29/12:30am 26.0 24.7 21.4 76 3.1 SE 30 44 16 24 1012.3 - 0.4
29/12:11am 26.1 25.2 21.5 76 3.1 SE 28 46 15 25 1012.5 - 0.4
29/12:00am 26.0 25.7 21.9 78 2.7 SE 26 41 14 22 1012.6 1012.6 0.4
 
Date/Time
EST
Temp
°C
App
Temp
°C
Dew
Point
°C
Rel
Hum
%
Delta-T
°C
Wind Press
QNH
hPa
Press
MSL
hPa
Rain since
9am
mm
Dir  Spd
km/h
Gust
km/h
Spd
kts
Gust
kts
28/11:30pm 26.0 24.5 21.7 77 2.9 SE 32 44 17 24 1012.6 - 0.4
28/11:07pm 26.1 25.2 21.5 76 3.1 SE 28 54 15 29 1012.6 - 0.4
28/11:00pm 26.1 25.7 21.7 77 2.9 SE 26 35 14 19 1012.6 - 0.4
28/10:32pm 26.1 24.9 21.5 76 3.1 SE 30 48 16 26 1012.5 - 0.4
28/10:30pm 26.1 25.0 21.7 77 2.9 SE 30 44 16 24 1012.4 - 0.4
28/10:00pm 26.1 24.9 21.5 76 3.1 SE 30 44 16 24 1012.6 - 0.4
28/09:30pm 26.0 25.0 21.9 78 2.7 SE 30 48 16 26 1012.4 - 0.4
28/09:06pm 26.0 25.4 21.9 78 2.7 SE 28 46 15 25 1012.3 - 0.4
28/09:00pm 26.1 24.6 21.7 77 2.9 SE 32 46 17 25 1012.3 1012.3 0.4
28/08:40pm 26.2 25.4 21.6 76 3.1 SE 28 52 15 28 1012.2 - 0.4
28/08:30pm 26.2 25.3 22.1 78 2.7 SE 30 41 16 22 1012.1 - 0.4
28/08:08pm 26.3 25.7 21.9 77 2.9 SE 28 48 15 26 1011.9 - 0.4
28/08:00pm 26.2 25.7 22.1 78 2.7 SE 28 41 15 22 1011.8 - 0.4
28/07:30pm 26.1 25.6 22.2 79 2.6 SE 28 44 15 24 1011.5 - 0.4
28/07:00pm 25.8 26.1 22.3 81 2.3 SE 24 37 13 20 1011.0 - 0.4
28/06:30pm 25.7 25.7 22.4 82 2.2 SE 26 37 14 20 1010.7 - 0.4
28/06:00pm 25.5 25.1 22.4 83 2.1 SE 28 44 15 24 1010.4 1010.4 0.4
28/05:41pm 25.3 24.8 22.2 83 2.1 SE 28 46 15 25 1010.4 - 0.4
28/05:30pm 25.3 24.9 22.4 84 1.9 SE 28 39 15 21 1010.2 - 0.4
28/05:00pm 25.1 24.3 23.0 88 1.4 SE 32 41 17 22 1010.1 - 0.4
28/04:56pm 25.0 24.1 22.9 88 1.4 SE 32 43 17 23 1010.1 - 0.4
28/04:32pm 25.7 25.0 23.2 86 1.7 ESE 32 44 17 24 1010.1 - 0.0
28/04:30pm 26.1 25.2 23.2 84 2.0 ESE 33 44 18 24 1009.9 - 0.0
28/04:05pm 27.5 25.9 21.5 70 4.0 SE 32 52 17 28 1009.7 - 0.0
28/04:00pm 27.8 26.2 21.8 70 4.0 SE 33 46 18 25 1009.7 - 0.0
28/03:30pm 27.7 25.6 21.7 70 4.0 SE 35 56 19 30 1009.8 - 0.0
28/03:25pm 27.9 26.2 21.7 69 4.2 SE 33 52 18 28 1009.7 - 0.0
28/03:00pm 27.7 25.6 21.7 70 4.0 SE 35 50 19 27 1009.5 1009.5 0.0
28/02:36pm 27.2 25.8 22.2 74 3.4 SE 33 52 18 28 1009.8 - 0.0
28/02:30pm 27.5 25.8 22.4 73 3.4 SE 35 50 19 27 1009.9 - 0.0
28/02:00pm 27.9 25.2 21.9 70 4.0 SE 39 50 21 27 1010.1 - 0.0
28/01:47pm 28.9 26.8 21.7 65 4.8 SE 35 54 19 29 1010.3 - 0.0
28/01:30pm 28.8 26.6 22.1 67 4.5 SE 37 48 20 26 1010.4 - 0.0
28/01:00pm 28.4 27.1 22.4 70 4.1 SE 33 46 18 25 1011.0 - 0.0
28/12:38pm 28.9 27.1 22.2 67 4.5 ESE 35 54 19 29 1011.2 - 0.0
28/12:30pm 29.0 26.4 22.2 66 4.6 SE 39 54 21 29 1011.2 - 0.0
28/12:04pm 29.2 27.8 22.2 66 4.7 SE 33 52 18 28 1011.3 - 0.0
28/12:00pm 29.3 27.5 22.3 66 4.7 SE 35 46 19 25 1011.4 1011.4 0.0
28/11:30am 28.7 26.5 22.2 68 4.4 ESE 37 52 20 28 1011.8 - 0.0
28/11:12am 28.1 26.7 22.3 70 3.9 SE 33 52 18 28 1012.0 - 0.0
28/11:00am 28.0 26.9 22.5 72 3.7 SE 32 41 17 22 1012.1 - 0.0
28/10:30am 28.6 27.4 22.6 70 4.1 SE 33 46 18 25 1012.3 - 0.0
28/10:16am 28.0 26.9 22.5 72 3.7 SE 32 50 17 27 1012.3 - 0.0
28/10:00am 28.0 27.0 22.7 73 3.6 SE 32 43 17 23 1012.4 - 0.0
28/09:30am 27.4 28.0 22.8 76 3.1 SE 24 39 13 21 1012.6 - 0.0
28/09:00am 26.5 26.8 23.0 81 2.4 SE 26 39 14 21 1012.6 1012.6 1.0
28/08:30am 26.3 28.0 23.4 84 2.0 SSE 20 28 11 15 1012.4 - 1.0

Other Formats:

Comma delimited format used in spreadsheet applications
http://www.bom.gov.au/fwo/IDQ60801/IDQ60801.94174.axf

JavaScript Object Notation format (JSON) in row-major order
http://www.bom.gov.au/fwo/IDQ60801/IDQ60801.94174.json